createdAt,value
2023-01-20T00:02:25.285Z,1.95
2023-01-20T00:05:13.983Z,0.20
2023-01-20T00:08:02.905Z,0.43
2023-01-20T00:10:51.550Z,0.10
2023-01-20T00:13:40.643Z,0.52
2023-01-20T00:16:31.712Z,2.83
2023-01-20T00:19:21.716Z,0.88
2023-01-20T00:22:10.393Z,0.20
2023-01-20T00:24:58.995Z,1.75
2023-01-20T00:27:47.796Z,0.20
2023-01-20T00:30:36.740Z,0.20
2023-01-20T00:33:25.422Z,1.05
2023-01-20T00:36:17.089Z,0.20
2023-01-20T00:39:06.523Z,1.55
2023-01-20T00:41:55.141Z,0.20
2023-01-20T00:44:43.799Z,0.73
2023-01-20T00:47:32.511Z,0.10
2023-01-20T00:50:21.091Z,0.10
2023-01-20T00:53:11.146Z,1.77
2023-01-20T00:55:59.874Z,0.47
2023-01-20T00:58:48.593Z,0.10
2023-01-20T01:01:37.349Z,1.02
2023-01-20T01:04:26.110Z,0.47
2023-01-20T01:07:14.698Z,0.40
2023-01-20T01:10:05.027Z,0.10
2023-01-20T01:12:53.632Z,0.17
2023-01-20T01:15:42.257Z,0.10
2023-01-20T01:18:32.101Z,0.10
2023-01-20T01:21:20.737Z,0.00
2023-01-20T01:24:09.489Z,0.32
2023-01-20T01:26:59.493Z,0.00
2023-01-20T01:29:48.143Z,0.30
2023-01-20T01:32:36.713Z,0.95
2023-01-20T01:35:25.291Z,1.17
2023-01-20T01:38:13.903Z,0.43
2023-01-20T01:41:02.796Z,0.20
2023-01-20T01:44:05.374Z,0.13
2023-01-20T01:46:56.651Z,0.25
2023-01-20T01:49:45.313Z,0.63
2023-01-20T01:52:34.419Z,1.20
2023-01-20T01:55:24.699Z,0.30
2023-01-20T01:58:16.318Z,1.25
2023-01-20T02:01:06.864Z,0.80
2023-01-20T02:03:59.997Z,0.10
2023-01-20T02:06:51.593Z,0.52
2023-01-20T02:09:40.542Z,0.30
2023-01-20T02:12:29.426Z,2.85
2023-01-20T02:15:22.885Z,1.52
2023-01-20T02:18:33.124Z,0.32
2023-01-20T02:21:56.300Z,0.10
2023-01-20T02:25:07.059Z,0.20
2023-01-20T02:28:24.184Z,0.43
2023-01-20T02:31:32.673Z,0.13
2023-01-20T02:34:27.882Z,1.23
2023-01-20T02:37:19.098Z,1.30
2023-01-20T02:40:18.291Z,3.75
2023-01-20T02:43:11.928Z,1.98
2023-01-20T02:46:05.043Z,1.35
2023-01-20T02:48:56.502Z,0.32
2023-01-20T02:51:52.089Z,0.00
2023-01-20T02:54:42.762Z,0.20
2023-01-20T02:57:34.035Z,0.20
2023-01-20T03:00:25.223Z,0.10
2023-01-20T03:03:17.159Z,0.00
2023-01-20T03:06:08.949Z,0.65
2023-01-20T03:09:02.489Z,0.10
2023-01-20T03:11:53.356Z,1.17
2023-01-20T03:14:42.151Z,0.05
2023-01-20T03:17:30.878Z,0.03
2023-01-20T03:20:19.898Z,0.75
2023-01-20T03:23:08.652Z,0.00
2023-01-20T03:25:58.990Z,0.20
2023-01-20T03:28:48.820Z,0.10
2023-01-20T03:31:39.717Z,4.75
2023-01-20T03:34:30.276Z,0.00
2023-01-20T03:37:19.046Z,0.95
2023-01-20T03:40:09.313Z,0.30
2023-01-20T03:43:02.407Z,0.35
2023-01-20T03:45:55.858Z,0.85
2023-01-20T03:48:49.179Z,0.03
2023-01-20T03:51:44.474Z,0.73
2023-01-20T03:54:36.831Z,0.13
2023-01-20T03:57:30.029Z,0.00
2023-01-20T04:00:23.020Z,0.08
2023-01-20T04:03:15.158Z,0.57
2023-01-20T04:06:06.693Z,1.20
2023-01-20T04:08:57.272Z,2.45
2023-01-20T04:11:46.030Z,0.00
2023-01-20T04:14:36.451Z,0.00
2023-01-20T04:17:29.818Z,0.10
2023-01-20T04:20:18.683Z,1.33
2023-01-20T04:23:07.846Z,1.95
2023-01-20T04:25:56.546Z,0.08
2023-01-20T04:28:45.081Z,0.65
2023-01-20T04:31:33.907Z,0.00
2023-01-20T04:34:23.944Z,0.22
2023-01-20T04:37:12.571Z,0.20
2023-01-20T04:40:01.161Z,0.77
2023-01-20T04:42:49.780Z,1.10
2023-01-20T04:45:38.365Z,0.00
2023-01-20T04:48:27.044Z,1.08
2023-01-20T04:51:17.147Z,0.75
2023-01-20T04:54:05.798Z,4.03
2023-01-20T04:56:54.445Z,0.28
2023-01-20T04:59:43.476Z,0.10
2023-01-20T05:02:34.818Z,2.85
2023-01-20T05:05:23.411Z,0.00
2023-01-20T05:08:13.436Z,0.10
2023-01-20T05:11:02.097Z,0.00
2023-01-20T05:13:50.738Z,1.33
2023-01-20T05:16:39.353Z,0.60
2023-01-20T05:19:28.001Z,2.08
2023-01-20T05:22:16.613Z,1.48
2023-01-20T05:25:07.635Z,3.95
2023-01-20T05:27:56.365Z,4.32
2023-01-20T05:30:45.237Z,8.10
2023-01-20T05:33:34.069Z,3.97
2023-01-20T05:36:22.790Z,4.70
2023-01-20T05:39:11.522Z,3.50
2023-01-20T05:42:02.521Z,4.40
2023-01-20T05:44:51.166Z,3.65
2023-01-20T05:47:39.812Z,1.73
2023-01-20T05:50:29.799Z,3.20
2023-01-20T05:53:18.900Z,2.47
2023-01-20T05:56:08.410Z,3.22
2023-01-20T05:58:58.458Z,1.13
2023-01-20T06:01:47.097Z,2.42
2023-01-20T06:04:35.884Z,1.15
2023-01-20T06:07:24.661Z,2.70
2023-01-20T06:10:13.871Z,1.35
2023-01-20T06:13:02.632Z,0.77
2023-01-20T06:15:54.384Z,1.40
2023-01-20T06:18:43.167Z,0.70
2023-01-20T06:21:31.842Z,4.03
2023-01-20T06:24:20.455Z,2.13
2023-01-20T06:27:09.292Z,1.63
2023-01-20T06:30:01.024Z,0.85
2023-01-20T06:32:51.044Z,3.63
2023-01-20T06:35:39.762Z,3.05
2023-01-20T06:38:30.977Z,3.65
2023-01-20T06:41:20.833Z,3.30
2023-01-20T06:44:09.499Z,5.28
2023-01-20T06:46:58.422Z,4.05
2023-01-20T06:49:48.466Z,1.25
2023-01-20T06:52:37.145Z,2.55
2023-01-20T06:55:25.748Z,1.35
2023-01-20T06:58:14.351Z,5.28
2023-01-20T07:01:08.742Z,5.10
2023-01-20T07:03:57.659Z,3.22
2023-01-20T07:06:47.649Z,1.38
2023-01-20T07:09:36.228Z,1.85
2023-01-20T07:12:24.859Z,3.33
2023-01-20T07:15:14.108Z,4.53
2023-01-20T07:18:02.915Z,2.88
2023-01-20T07:20:55.172Z,0.73
2023-01-20T07:23:47.386Z,1.55
2023-01-20T07:26:39.053Z,1.45
2023-01-20T07:29:28.305Z,2.17
2023-01-20T07:32:17.075Z,2.80
2023-01-20T07:35:06.264Z,2.15
2023-01-20T07:37:54.922Z,4.80
2023-01-20T07:40:44.987Z,1.92
2023-01-20T07:43:36.020Z,3.78
2023-01-20T07:46:24.738Z,1.95
2023-01-20T07:49:13.582Z,1.70
2023-01-20T07:52:02.305Z,1.00
2023-01-20T07:54:50.922Z,5.45
2023-01-20T07:57:40.895Z,0.93
2023-01-20T08:00:29.522Z,3.42
2023-01-20T08:03:18.167Z,0.73
2023-01-20T08:06:07.887Z,2.60
2023-01-20T08:08:58.825Z,1.60
2023-01-20T08:11:47.726Z,1.35
2023-01-20T08:14:38.012Z,1.02
2023-01-20T08:17:26.612Z,1.58
2023-01-20T08:20:15.295Z,1.10
2023-01-20T08:23:03.986Z,2.40
2023-01-20T08:25:59.886Z,0.98
2023-01-20T08:28:49.163Z,1.55
2023-01-20T08:31:39.633Z,1.65
2023-01-20T08:34:28.911Z,2.60
2023-01-20T08:37:17.563Z,1.27
2023-01-20T08:40:08.514Z,2.55
2023-01-20T08:42:57.134Z,2.53
2023-01-20T08:45:45.898Z,2.35
2023-01-20T08:48:36.265Z,1.63
2023-01-20T08:51:27.841Z,0.90
2023-01-20T08:54:16.746Z,3.80
2023-01-20T08:57:05.572Z,1.60
2023-01-20T08:59:54.388Z,0.80
2023-01-20T09:02:43.339Z,0.65
2023-01-20T09:05:33.363Z,1.50
2023-01-20T09:08:22.352Z,0.93
2023-01-20T09:11:13.336Z,1.05
2023-01-20T09:14:02.228Z,0.40
2023-01-20T09:16:51.107Z,2.58
2023-01-20T09:19:39.852Z,0.50
2023-01-20T09:22:29.854Z,2.70
2023-01-20T09:25:18.678Z,0.75
2023-01-20T09:28:10.196Z,0.40
2023-01-20T09:31:00.098Z,0.85
2023-01-20T09:33:49.094Z,0.30
2023-01-20T09:36:38.215Z,1.90
2023-01-20T09:39:46.172Z,1.60
2023-01-20T09:43:07.913Z,0.90
2023-01-20T09:45:58.936Z,1.05
2023-01-20T09:49:09.967Z,6.95
2023-01-20T09:52:22.187Z,2.72
2023-01-20T09:55:17.328Z,3.08
2023-01-20T09:58:12.068Z,1.17
2023-01-20T10:01:08.674Z,1.35
2023-01-20T10:04:00.124Z,1.13
2023-01-20T10:06:50.771Z,1.55
2023-01-20T10:09:43.454Z,1.52
2023-01-20T10:12:36.371Z,0.82
2023-01-20T10:15:27.438Z,1.98
2023-01-20T10:18:21.178Z,0.47
2023-01-20T10:21:13.126Z,2.35
2023-01-20T10:24:05.742Z,0.70
2023-01-20T10:26:56.672Z,1.15
2023-01-20T10:29:49.724Z,0.50
2023-01-20T10:32:40.521Z,1.13
2023-01-20T10:35:30.700Z,2.45
2023-01-20T10:38:22.644Z,1.40
2023-01-20T10:41:18.664Z,1.30
2023-01-20T10:44:13.161Z,0.40
2023-01-20T10:47:17.644Z,0.50
2023-01-20T10:50:38.964Z,2.10
2023-01-20T10:53:53.056Z,0.40
2023-01-20T10:56:45.317Z,0.52
2023-01-20T10:59:36.505Z,0.30
2023-01-20T11:02:29.004Z,0.85
2023-01-20T11:05:19.961Z,1.35
2023-01-20T11:08:12.302Z,0.95
2023-01-20T11:11:02.939Z,0.80
2023-01-20T11:13:52.718Z,0.45
2023-01-20T11:16:44.812Z,0.68
2023-01-20T11:19:48.850Z,1.20
2023-01-20T11:22:38.757Z,0.30
2023-01-20T11:25:28.601Z,0.20
2023-01-20T11:28:19.059Z,1.85
2023-01-20T11:31:07.882Z,2.47
2023-01-20T11:33:58.666Z,0.50
2023-01-20T11:36:49.391Z,0.52
2023-01-20T11:39:44.012Z,0.45
2023-01-20T11:42:43.044Z,0.80
2023-01-20T11:45:34.731Z,0.40
2023-01-20T11:48:23.442Z,0.45
2023-01-20T11:51:21.352Z,3.03
2023-01-20T11:54:16.800Z,0.63
2023-01-20T11:57:07.627Z,0.30
2023-01-20T11:59:56.298Z,0.32
2023-01-20T12:02:45.466Z,0.30
2023-01-20T12:05:37.641Z,0.30
2023-01-20T12:08:29.950Z,0.25
2023-01-20T12:11:23.275Z,1.05
2023-01-20T12:14:28.584Z,0.10
2023-01-20T12:17:21.322Z,0.20
2023-01-20T12:20:18.703Z,3.90
2023-01-20T12:23:21.201Z,0.20
2023-01-20T12:26:11.704Z,0.57
2023-01-20T12:29:05.393Z,0.20
2023-01-20T12:31:54.494Z,0.60
2023-01-20T12:34:43.220Z,0.20
2023-01-20T12:37:34.201Z,0.63
2023-01-20T12:40:28.891Z,0.28
2023-01-20T12:43:40.548Z,0.20
2023-01-20T12:46:37.525Z,0.25
2023-01-20T12:49:38.401Z,1.70
2023-01-20T12:52:37.632Z,0.50
2023-01-20T12:55:34.653Z,8.10
2023-01-20T12:58:35.742Z,0.30
2023-01-20T13:01:44.269Z,0.10
2023-01-20T13:04:49.870Z,0.20
2023-01-20T13:07:56.051Z,0.60
2023-01-20T13:10:51.554Z,0.90
2023-01-20T13:13:57.000Z,1.55
2023-01-20T13:16:52.067Z,0.47
2023-01-20T13:19:42.569Z,0.20
2023-01-20T13:22:31.421Z,0.10
2023-01-20T13:25:20.327Z,0.10
2023-01-20T13:28:16.807Z,0.25
2023-01-20T13:31:33.941Z,0.32
2023-01-20T13:34:37.179Z,1.77
2023-01-20T13:37:30.971Z,0.10
2023-01-20T13:40:49.278Z,0.20
2023-01-20T13:43:50.339Z,0.10
2023-01-20T13:46:50.108Z,0.15
2023-01-20T13:49:53.689Z,1.08
2023-01-20T13:53:05.447Z,0.90
2023-01-20T13:56:04.056Z,0.20
2023-01-20T13:58:52.995Z,0.20
2023-01-20T14:01:41.785Z,0.30
2023-01-20T14:04:33.029Z,2.25
2023-01-20T14:07:27.164Z,0.47
2023-01-20T14:10:16.084Z,0.00
2023-01-20T14:13:11.853Z,0.10
2023-01-20T14:16:01.621Z,1.27
2023-01-20T14:18:50.611Z,0.30
2023-01-20T14:21:42.769Z,0.10
2023-01-20T14:24:35.273Z,0.03
2023-01-20T14:27:27.234Z,0.10
2023-01-20T14:30:21.867Z,0.10
2023-01-20T14:33:16.205Z,0.40
2023-01-20T14:36:08.441Z,0.08
2023-01-20T14:38:59.044Z,0.10
2023-01-20T14:41:50.638Z,0.68
2023-01-20T14:44:40.150Z,0.10
2023-01-20T14:47:39.359Z,2.58
2023-01-20T14:50:28.761Z,0.10
2023-01-20T14:53:31.696Z,0.10
2023-01-20T14:56:21.605Z,0.55
2023-01-20T14:59:20.160Z,3.40
2023-01-20T15:02:16.403Z,0.32
2023-01-20T15:05:20.535Z,0.10
2023-01-20T15:08:25.193Z,0.40
2023-01-20T15:11:26.104Z,0.00
2023-01-20T15:14:14.761Z,0.00
2023-01-20T15:17:03.715Z,0.00
2023-01-20T15:19:53.049Z,0.43
2023-01-20T15:22:44.228Z,0.20
2023-01-20T15:25:32.790Z,0.15
2023-01-20T15:28:28.639Z,0.05
2023-01-20T15:31:18.358Z,0.52
2023-01-20T15:34:07.103Z,0.25
2023-01-20T15:36:57.104Z,0.10
2023-01-20T15:39:45.948Z,0.13
2023-01-20T15:42:34.573Z,0.13
2023-01-20T15:45:25.829Z,3.95
2023-01-20T15:48:19.006Z,0.57
2023-01-20T15:51:08.189Z,0.20
2023-01-20T15:53:56.808Z,0.20
2023-01-20T15:56:45.905Z,0.10
2023-01-20T15:59:34.481Z,2.63
2023-01-20T16:02:25.115Z,0.00
2023-01-20T16:05:17.140Z,1.10
2023-01-20T16:08:13.823Z,0.20
2023-01-20T16:11:02.519Z,1.90
2023-01-20T16:13:51.262Z,0.20
2023-01-20T16:16:39.999Z,0.10
2023-01-20T16:19:30.162Z,0.40
2023-01-20T16:22:19.070Z,0.45
2023-01-20T16:25:08.876Z,0.00
2023-01-20T16:27:59.265Z,1.00
2023-01-20T16:30:48.314Z,0.30
2023-01-20T16:33:37.002Z,1.50
2023-01-20T16:36:27.066Z,0.82
2023-01-20T16:39:15.702Z,0.30
2023-01-20T16:42:04.466Z,0.05
2023-01-20T16:44:54.288Z,0.10
2023-01-20T16:47:42.903Z,0.30
2023-01-20T16:50:31.658Z,2.05
2023-01-20T16:53:21.952Z,0.75
2023-01-20T16:56:15.216Z,1.02
2023-01-20T16:59:05.654Z,0.52
2023-01-20T17:01:54.315Z,3.28
2023-01-20T17:04:42.964Z,1.30
2023-01-20T17:07:31.594Z,0.40
2023-01-20T17:10:22.117Z,0.08
2023-01-20T17:13:10.832Z,2.05
2023-01-20T17:16:00.253Z,1.17
2023-01-20T17:18:50.509Z,0.20
2023-01-20T17:21:40.055Z,0.05
2023-01-20T17:24:28.781Z,1.77
2023-01-20T17:27:18.775Z,0.10
2023-01-20T17:30:09.416Z,0.10
2023-01-20T17:32:58.117Z,0.25
2023-01-20T17:35:47.258Z,0.40
2023-01-20T17:38:37.544Z,0.90
2023-01-20T17:41:26.279Z,0.60
2023-01-20T17:44:16.583Z,0.30
2023-01-20T17:47:05.507Z,0.75
2023-01-20T17:49:54.183Z,4.78
2023-01-20T17:52:42.786Z,1.13
2023-01-20T17:55:31.463Z,0.25
2023-01-20T17:58:20.150Z,0.30
2023-01-20T18:01:15.346Z,0.10
2023-01-20T18:04:08.355Z,0.00
2023-01-20T18:06:59.552Z,0.03
2023-01-20T18:09:48.237Z,1.02
2023-01-20T18:12:36.848Z,3.20
2023-01-20T18:15:25.939Z,1.95
2023-01-20T18:18:16.013Z,3.80
2023-01-20T18:21:12.083Z,3.03
2023-01-20T18:24:01.136Z,0.90
2023-01-20T18:26:49.838Z,3.13
2023-01-20T18:29:38.516Z,3.50
2023-01-20T18:32:27.206Z,0.75
2023-01-20T18:35:17.443Z,3.05
2023-01-20T18:38:06.183Z,1.10
2023-01-20T18:40:54.867Z,1.85
2023-01-20T18:43:43.587Z,2.20
2023-01-20T18:46:33.456Z,9.57
2023-01-20T18:49:22.241Z,35.95
2023-01-20T18:52:12.272Z,31.98
2023-01-20T18:55:01.355Z,26.63
2023-01-20T18:57:50.017Z,33.38
2023-01-20T19:00:38.841Z,31.50
2023-01-20T19:03:27.738Z,25.48
2023-01-20T19:06:17.794Z,19.92
2023-01-20T19:09:08.459Z,26.42
2023-01-20T19:11:57.124Z,26.15
2023-01-20T19:14:45.758Z,23.50
2023-01-20T19:17:34.442Z,23.73
2023-01-20T19:20:24.035Z,22.35
2023-01-20T19:23:13.731Z,25.77
2023-01-20T19:26:05.453Z,25.33
2023-01-20T19:28:58.178Z,20.48
2023-01-20T19:31:47.101Z,22.67
2023-01-20T19:34:35.902Z,22.65
2023-01-20T19:37:24.619Z,21.40
2023-01-20T19:40:13.625Z,27.25
2023-01-20T19:43:03.831Z,23.80
2023-01-20T19:45:52.516Z,23.00
2023-01-20T19:48:41.556Z,20.13
2023-01-20T19:51:31.732Z,18.02
2023-01-20T19:54:20.820Z,19.83
2023-01-20T19:57:09.609Z,16.17
2023-01-20T19:59:59.760Z,17.80
2023-01-20T20:02:48.752Z,14.18
2023-01-20T20:05:40.785Z,14.77
2023-01-20T20:08:29.633Z,17.85
2023-01-20T20:11:21.343Z,14.27
2023-01-20T20:14:13.384Z,13.18
2023-01-20T20:17:03.825Z,12.20
2023-01-20T20:19:52.431Z,14.30
2023-01-20T20:22:41.469Z,19.05
2023-01-20T20:25:30.188Z,12.18
2023-01-20T20:28:19.461Z,13.80
2023-01-20T20:31:09.277Z,15.00
2023-01-20T20:34:00.733Z,13.93
2023-01-20T20:36:49.586Z,12.25
2023-01-20T20:39:38.374Z,10.35
2023-01-20T20:42:27.239Z,10.95
2023-01-20T20:45:15.802Z,11.60
2023-01-20T20:48:04.623Z,12.30
2023-01-20T20:50:54.660Z,13.70
2023-01-20T20:53:43.933Z,8.23
2023-01-20T20:56:32.909Z,13.07
2023-01-20T20:59:24.643Z,8.93
2023-01-20T21:02:14.953Z,7.97
2023-01-20T21:05:03.647Z,6.47
2023-01-20T21:07:53.753Z,8.63
2023-01-20T21:10:42.526Z,8.65
2023-01-20T21:13:34.363Z,18.60
2023-01-20T21:16:26.270Z,9.15
2023-01-20T21:19:17.607Z,8.82
2023-01-20T21:22:06.236Z,8.93
2023-01-20T21:24:56.245Z,8.27
2023-01-20T21:27:44.949Z,7.65
2023-01-20T21:30:33.531Z,6.78
2023-01-20T21:33:22.306Z,10.13
2023-01-20T21:36:15.301Z,6.43
2023-01-20T21:39:05.349Z,7.65
2023-01-20T21:41:55.437Z,8.45
2023-01-20T21:44:44.090Z,7.60
2023-01-20T21:47:32.948Z,5.00
2023-01-20T21:50:39.361Z,9.20
2023-01-20T21:53:27.999Z,7.78
2023-01-20T21:56:18.209Z,6.60
2023-01-20T21:59:08.638Z,5.97
2023-01-20T22:01:57.278Z,4.82
2023-01-20T22:04:47.210Z,7.97
2023-01-20T22:07:36.178Z,3.92
2023-01-20T22:10:24.826Z,6.07
2023-01-20T22:13:13.475Z,7.28
2023-01-20T22:16:05.482Z,5.50
2023-01-20T22:18:54.816Z,13.88
2023-01-20T22:21:43.797Z,16.08
2023-01-20T22:24:32.449Z,11.77
2023-01-20T22:27:21.090Z,11.20
2023-01-20T22:30:11.111Z,5.57
2023-01-20T22:33:01.191Z,6.63
2023-01-20T22:35:49.861Z,4.07
2023-01-20T22:38:38.620Z,5.55
2023-01-20T22:41:27.287Z,4.95
2023-01-20T22:44:16.052Z,4.95
2023-01-20T22:47:05.762Z,6.72
2023-01-20T22:49:56.856Z,5.40
2023-01-20T22:52:45.554Z,3.13
2023-01-20T22:55:34.236Z,4.93
2023-01-20T22:58:22.885Z,5.47
2023-01-20T23:01:14.284Z,3.97
2023-01-20T23:04:05.006Z,7.30
2023-01-20T23:06:54.993Z,4.53
2023-01-20T23:09:46.457Z,2.53
2023-01-20T23:12:36.706Z,3.58
2023-01-20T23:15:25.595Z,2.72
2023-01-20T23:18:14.284Z,2.45
2023-01-20T23:21:05.747Z,8.15
2023-01-20T23:23:55.991Z,3.17
2023-01-20T23:26:44.704Z,2.85
2023-01-20T23:29:33.511Z,2.47
2023-01-20T23:32:22.083Z,3.85
2023-01-20T23:35:11.301Z,2.42
2023-01-20T23:37:59.886Z,2.15
2023-01-20T23:40:50.566Z,2.17
2023-01-20T23:43:39.271Z,3.17
2023-01-20T23:46:27.971Z,1.90
2023-01-20T23:49:16.578Z,2.13
2023-01-20T23:52:05.988Z,2.13
2023-01-20T23:54:54.879Z,1.95
2023-01-20T23:57:44.844Z,1.75
